createdAt,value
2023-02-24T00:00:32.699Z,16.74
2023-02-24T00:03:37.644Z,16.99
2023-02-24T00:06:44.028Z,16.91
2023-02-24T00:09:46.795Z,16.75
2023-02-24T00:12:49.753Z,16.82
2023-02-24T00:16:03.007Z,16.75
2023-02-24T00:19:07.618Z,16.62
2023-02-24T00:22:10.467Z,16.48
2023-02-24T00:25:14.850Z,16.39
2023-02-24T00:28:16.878Z,16.44
2023-02-24T00:31:24.928Z,16.34
2023-02-24T00:34:31.739Z,16.05
2023-02-24T00:37:34.727Z,16.00
2023-02-24T00:40:37.773Z,16.00
2023-02-24T00:43:47.077Z,15.86
2023-02-24T00:46:49.126Z,15.65
2023-02-24T00:49:51.349Z,15.61
2023-02-24T00:52:54.107Z,15.72
2023-02-24T00:56:00.734Z,15.73
2023-02-24T00:59:03.660Z,15.69
2023-02-24T01:02:07.335Z,15.78
2023-02-24T01:05:09.973Z,15.57
2023-02-24T01:08:12.760Z,15.70
2023-02-24T01:11:37.559Z,15.82
2023-02-24T01:14:41.415Z,15.80
2023-02-24T01:17:43.670Z,15.77
2023-02-24T01:20:46.374Z,15.83
2023-02-24T01:23:50.117Z,15.84
2023-02-24T01:26:53.135Z,15.84
2023-02-24T01:29:55.214Z,15.68
2023-02-24T01:32:57.721Z,15.76
2023-02-24T01:36:28.605Z,15.63
2023-02-24T01:39:30.794Z,15.62
2023-02-24T01:42:34.234Z,15.59
2023-02-24T01:45:40.233Z,15.61
2023-02-24T01:48:42.883Z,15.54
2023-02-24T01:51:50.247Z,15.49
2023-02-24T01:55:09.409Z,15.47
2023-02-24T01:58:13.904Z,15.41
2023-02-24T02:01:20.442Z,15.22
2023-02-24T02:04:36.690Z,15.41
2023-02-24T02:07:40.662Z,15.32
2023-02-24T02:10:44.395Z,15.33
2023-02-24T02:13:52.454Z,15.32
2023-02-24T02:17:00.308Z,15.28
2023-02-24T02:20:16.031Z,15.37
2023-02-24T02:23:28.797Z,15.37
2023-02-24T02:27:12.311Z,15.29
2023-02-24T02:30:38.697Z,15.14
2023-02-24T02:34:02.854Z,15.09
2023-02-24T02:37:12.185Z,15.02
2023-02-24T02:40:24.210Z,15.07
2023-02-24T02:43:49.705Z,15.05
2023-02-24T02:47:09.136Z,15.05
2023-02-24T02:50:24.300Z,14.96
2023-02-24T02:53:39.765Z,15.01
2023-02-24T02:57:02.203Z,14.90
2023-02-24T03:00:23.394Z,14.90
2023-02-24T03:03:28.119Z,14.88
2023-02-24T03:06:53.770Z,14.89
2023-02-24T03:10:01.492Z,14.78
2023-02-24T03:13:06.638Z,14.75
2023-02-24T03:16:12.728Z,14.75
2023-02-24T03:19:20.786Z,14.57
2023-02-24T03:22:35.145Z,14.65
2023-02-24T03:25:47.038Z,14.48
2023-02-24T03:29:10.299Z,14.30
2023-02-24T03:32:12.669Z,14.10
2023-02-24T03:35:19.872Z,14.13
2023-02-24T03:38:24.623Z,14.18
2023-02-24T03:41:35.832Z,14.22
2023-02-24T03:44:38.262Z,14.36
2023-02-24T03:47:41.380Z,14.55
2023-02-24T03:50:44.052Z,14.86
2023-02-24T03:54:21.402Z,14.86
2023-02-24T03:57:55.034Z,15.25
2023-02-24T04:01:15.008Z,15.33
2023-02-24T04:04:35.589Z,15.48
2023-02-24T04:08:04.613Z,15.32
2023-02-24T04:11:17.915Z,14.93
2023-02-24T04:14:49.689Z,14.69
2023-02-24T04:18:02.190Z,14.63
2023-02-24T04:21:09.335Z,14.44
2023-02-24T04:24:15.894Z,14.32
2023-02-24T04:27:21.803Z,14.50
2023-02-24T04:30:29.876Z,14.49
2023-02-24T04:33:33.769Z,14.41
2023-02-24T04:36:38.080Z,14.35
2023-02-24T04:39:41.049Z,14.29
2023-02-24T04:42:50.532Z,14.26
2023-02-24T04:45:56.131Z,14.16
2023-02-24T04:48:58.079Z,14.13
2023-02-24T04:52:00.134Z,14.21
2023-02-24T04:55:10.092Z,14.24
2023-02-24T04:58:14.540Z,14.40
2023-02-24T05:01:16.641Z,14.42
2023-02-24T05:04:18.719Z,14.49
2023-02-24T05:07:22.694Z,14.33
2023-02-24T05:10:28.186Z,14.50
2023-02-24T05:13:31.964Z,14.39
2023-02-24T05:16:34.659Z,14.42
2023-02-24T05:20:11.830Z,14.48
2023-02-24T05:23:14.066Z,14.87
2023-02-24T05:26:18.365Z,15.04
2023-02-24T05:29:20.472Z,14.99
2023-02-24T05:32:24.485Z,15.00
2023-02-24T05:35:26.558Z,14.93
2023-02-24T05:38:28.580Z,14.90
2023-02-24T05:41:36.116Z,14.76
2023-02-24T05:44:38.224Z,14.80
2023-02-24T05:47:40.350Z,14.72
2023-02-24T05:50:46.320Z,14.61
2023-02-24T05:53:48.689Z,14.46
2023-02-24T05:56:50.696Z,14.50
2023-02-24T05:59:53.352Z,14.60
2023-02-24T06:03:07.707Z,14.53
2023-02-24T06:06:09.717Z,14.51
2023-02-24T06:09:13.996Z,14.59
2023-02-24T06:12:17.177Z,14.57
2023-02-24T06:15:19.172Z,14.47
2023-02-24T06:18:24.123Z,14.44
2023-02-24T06:21:29.311Z,14.50
2023-02-24T06:24:33.595Z,14.64
2023-02-24T06:27:39.234Z,14.59
2023-02-24T06:30:41.347Z,14.53
2023-02-24T06:33:43.434Z,14.67
2023-02-24T06:36:47.083Z,14.64
2023-02-24T06:39:49.066Z,14.67
2023-02-24T06:42:56.566Z,14.70
2023-02-24T06:46:02.502Z,14.78
2023-02-24T06:49:04.559Z,14.69
2023-02-24T06:52:06.694Z,14.68
2023-02-24T06:55:25.514Z,14.69
2023-02-24T06:58:27.596Z,14.72
2023-02-24T07:01:29.618Z,14.74
2023-02-24T07:04:36.332Z,14.72
2023-02-24T07:07:38.365Z,14.69
2023-02-24T07:10:40.507Z,14.77
2023-02-24T07:13:43.021Z,14.75
2023-02-24T07:16:45.901Z,14.78
2023-02-24T07:19:48.010Z,14.89
2023-02-24T07:22:50.302Z,14.78
2023-02-24T07:25:53.530Z,14.85
2023-02-24T07:28:56.800Z,14.80
2023-02-24T07:32:03.598Z,14.90
2023-02-24T07:35:06.149Z,14.96
2023-02-24T07:38:08.333Z,14.98
2023-02-24T07:41:12.405Z,14.95
2023-02-24T07:44:14.392Z,15.02
2023-02-24T07:47:16.430Z,15.09
2023-02-24T07:50:19.547Z,15.13
2023-02-24T07:53:21.616Z,15.11
2023-02-24T07:56:31.146Z,15.11
2023-02-24T07:59:35.926Z,15.20
2023-02-24T08:02:38.955Z,15.30
2023-02-24T08:05:43.760Z,15.39
2023-02-24T08:08:57.955Z,15.44
2023-02-24T08:12:01.546Z,15.46
2023-02-24T08:15:17.272Z,15.50
2023-02-24T08:18:20.239Z,15.57
2023-02-24T08:21:22.637Z,15.63
2023-02-24T08:24:30.045Z,15.67
2023-02-24T08:27:34.275Z,15.72
2023-02-24T08:30:46.612Z,15.74
2023-02-24T08:33:48.731Z,15.73
2023-02-24T08:36:56.159Z,15.79
2023-02-24T08:39:58.404Z,15.85
2023-02-24T08:43:17.222Z,15.89
2023-02-24T08:46:26.997Z,15.84
2023-02-24T08:49:29.439Z,15.89
2023-02-24T08:52:32.416Z,15.81
2023-02-24T08:55:39.956Z,15.93
2023-02-24T08:58:47.487Z,16.03
2023-02-24T09:02:04.372Z,16.04
2023-02-24T09:05:14.202Z,16.04
2023-02-24T09:08:16.588Z,16.12
2023-02-24T09:11:23.181Z,16.14
2023-02-24T09:14:28.496Z,16.18
2023-02-24T09:17:41.162Z,16.23
2023-02-24T09:21:16.271Z,16.20
2023-02-24T09:24:27.847Z,16.30
2023-02-24T09:27:31.612Z,16.27
2023-02-24T09:30:51.249Z,16.37
2023-02-24T09:33:53.624Z,16.29
2023-02-24T09:37:03.363Z,16.33
2023-02-24T09:40:21.404Z,16.80
2023-02-24T09:43:28.108Z,17.03
2023-02-24T09:46:56.866Z,16.85
2023-02-24T09:50:06.225Z,16.65
2023-02-24T09:53:17.610Z,16.55
2023-02-24T09:56:26.012Z,16.51
2023-02-24T10:00:01.610Z,16.42
2023-02-24T10:03:20.166Z,16.38
2023-02-24T10:06:26.932Z,16.43
2023-02-24T10:09:35.561Z,16.57
2023-02-24T10:12:40.406Z,16.57
2023-02-24T10:15:58.062Z,16.53
2023-02-24T10:19:17.314Z,16.61
2023-02-24T10:22:29.710Z,16.63
2023-02-24T10:25:57.143Z,16.59
2023-02-24T10:29:29.664Z,16.59
2023-02-24T10:32:37.503Z,16.58
2023-02-24T10:35:39.457Z,16.57
2023-02-24T10:38:45.591Z,16.52
2023-02-24T10:41:57.758Z,16.70
2023-02-24T10:45:18.530Z,16.75
2023-02-24T10:48:40.680Z,16.72
2023-02-24T10:51:51.525Z,16.69
2023-02-24T10:55:08.841Z,16.68
2023-02-24T10:58:43.367Z,16.79
2023-02-24T11:01:55.921Z,16.81
2023-02-24T11:05:03.665Z,16.77
2023-02-24T11:08:15.880Z,16.76
2023-02-24T11:11:31.030Z,16.78
2023-02-24T11:15:08.940Z,16.68
2023-02-24T11:18:18.481Z,16.63
2023-02-24T11:21:24.824Z,16.61
2023-02-24T11:24:29.749Z,16.59
2023-02-24T11:27:32.883Z,16.58
2023-02-24T11:30:46.540Z,16.60
2023-02-24T11:34:21.692Z,16.60
2023-02-24T11:37:45.125Z,16.63
2023-02-24T11:40:55.959Z,16.95
2023-02-24T11:44:31.284Z,17.28
2023-02-24T11:47:41.389Z,17.16
2023-02-24T11:51:06.630Z,17.16
2023-02-24T11:54:15.260Z,17.03
2023-02-24T11:57:23.945Z,17.06
2023-02-24T12:00:34.155Z,17.02
2023-02-24T12:04:01.504Z,16.92
2023-02-24T12:07:31.006Z,16.93
2023-02-24T12:10:41.564Z,16.89
2023-02-24T12:13:53.961Z,17.12
2023-02-24T12:17:18.328Z,17.44
2023-02-24T12:20:32.878Z,17.76
2023-02-24T12:23:36.173Z,17.70
2023-02-24T12:27:12.487Z,17.48
2023-02-24T12:30:51.295Z,17.28
2023-02-24T12:34:08.983Z,17.22
2023-02-24T12:37:28.564Z,17.09
2023-02-24T12:40:50.366Z,17.13
2023-02-24T12:43:57.782Z,17.05
2023-02-24T12:47:16.403Z,17.09
2023-02-24T12:50:30.987Z,17.11
2023-02-24T12:54:01.682Z,17.00
2023-02-24T12:57:22.432Z,16.97
2023-02-24T13:00:43.344Z,16.90
2023-02-24T13:04:22.084Z,16.84
2023-02-24T13:07:50.670Z,16.82
2023-02-24T13:10:59.210Z,16.80
2023-02-24T13:14:20.457Z,16.79
2023-02-24T13:17:27.351Z,16.79
2023-02-24T13:20:32.149Z,16.83
2023-02-24T13:23:38.821Z,16.78
2023-02-24T13:26:40.829Z,16.74
2023-02-24T13:29:47.701Z,16.89
2023-02-24T13:33:04.472Z,17.04
2023-02-24T13:36:09.937Z,16.93
2023-02-24T13:39:36.536Z,16.89
2023-02-24T13:42:39.072Z,16.86
2023-02-24T13:45:42.848Z,16.91
2023-02-24T13:49:00.335Z,16.94
2023-02-24T13:52:18.531Z,16.96
2023-02-24T13:55:39.902Z,16.98
2023-02-24T13:59:01.746Z,16.97
2023-02-24T14:02:22.736Z,16.88
2023-02-24T14:05:35.554Z,16.83
2023-02-24T14:08:42.702Z,16.80
2023-02-24T14:11:44.930Z,16.69
2023-02-24T14:14:48.565Z,16.64
2023-02-24T14:18:00.144Z,16.53
2023-02-24T14:21:02.557Z,16.59
2023-02-24T14:24:11.686Z,16.62
2023-02-24T14:27:25.121Z,16.61
2023-02-24T14:30:37.341Z,16.61
2023-02-24T14:33:42.092Z,16.65
2023-02-24T14:36:49.882Z,16.65
2023-02-24T14:40:20.496Z,16.56
2023-02-24T14:43:24.249Z,16.53
2023-02-24T14:46:26.783Z,16.43
2023-02-24T14:49:34.226Z,16.48
2023-02-24T14:52:42.424Z,16.47
2023-02-24T14:55:50.160Z,16.47
2023-02-24T14:59:01.412Z,16.50
2023-02-24T15:02:12.442Z,16.47
2023-02-24T15:05:15.438Z,16.48
2023-02-24T15:08:29.755Z,16.36
2023-02-24T15:11:33.106Z,16.48
2023-02-24T15:14:35.228Z,16.37
2023-02-24T15:17:41.686Z,16.48
2023-02-24T15:20:43.797Z,16.72
2023-02-24T15:23:52.395Z,16.95
2023-02-24T15:27:00.830Z,16.91
2023-02-24T15:30:25.674Z,16.67
2023-02-24T15:33:34.368Z,16.56
2023-02-24T15:36:36.851Z,16.55
2023-02-24T15:39:43.653Z,16.51
2023-02-24T15:42:57.882Z,16.42
2023-02-24T15:46:00.130Z,16.44
2023-02-24T15:49:04.776Z,16.41
2023-02-24T15:52:11.237Z,16.38
2023-02-24T15:55:18.323Z,16.32
2023-02-24T15:58:30.517Z,16.34
2023-02-24T16:01:33.449Z,16.40
2023-02-24T16:04:35.529Z,16.31
2023-02-24T16:07:39.313Z,16.35
2023-02-24T16:10:42.568Z,16.30
2023-02-24T16:13:52.626Z,16.26
2023-02-24T16:20:31.804Z,16.26
2023-02-24T16:23:56.843Z,16.36
2023-02-24T16:26:58.942Z,16.49
2023-02-24T16:30:02.561Z,16.57
2023-02-24T16:33:05.951Z,16.53
2023-02-24T16:36:12.139Z,16.27
2023-02-24T16:39:15.858Z,16.15
2023-02-24T16:42:20.186Z,16.17
2023-02-24T16:45:28.591Z,16.08
2023-02-24T16:48:36.946Z,16.07
2023-02-24T16:51:40.648Z,16.07
2023-02-24T16:54:42.994Z,16.04
2023-02-24T16:57:50.162Z,15.98
2023-02-24T17:00:54.796Z,15.98
2023-02-24T17:03:56.975Z,15.90
2023-02-24T17:06:59.181Z,15.95
2023-02-24T17:10:01.200Z,15.94
2023-02-24T17:13:03.594Z,15.88
2023-02-24T17:16:06.066Z,15.91
2023-02-24T17:19:09.214Z,15.96
2023-02-24T17:22:11.335Z,15.94
2023-02-24T17:25:21.914Z,15.92
2023-02-24T17:28:24.493Z,15.90
2023-02-24T17:31:31.712Z,15.89
2023-02-24T17:34:33.924Z,15.68
2023-02-24T17:37:36.306Z,15.71
2023-02-24T17:40:38.413Z,15.80
2023-02-24T17:43:40.478Z,15.72
2023-02-24T17:46:42.824Z,15.71
2023-02-24T17:49:44.945Z,15.67
2023-02-24T17:52:47.137Z,15.71
2023-02-24T17:56:01.856Z,15.74
2023-02-24T17:59:07.653Z,15.68
2023-02-24T18:02:11.759Z,15.75
2023-02-24T18:05:16.514Z,15.58
2023-02-24T18:08:18.543Z,15.65
2023-02-24T18:11:21.273Z,15.70
2023-02-24T18:14:23.655Z,15.85
2023-02-24T18:17:26.083Z,15.84
2023-02-24T18:20:28.244Z,15.75
2023-02-24T18:23:30.401Z,15.76
2023-02-24T18:26:32.416Z,15.74
2023-02-24T18:29:34.556Z,15.69
2023-02-24T18:32:36.822Z,15.51
2023-02-24T18:35:39.230Z,15.65
2023-02-24T18:38:41.550Z,15.72
2023-02-24T18:41:47.618Z,15.66
2023-02-24T18:44:49.705Z,15.61
2023-02-24T18:47:52.723Z,15.69
2023-02-24T18:50:56.582Z,15.64
2023-02-24T18:53:59.496Z,15.43
2023-02-24T18:57:02.716Z,15.38
2023-02-24T19:00:08.762Z,15.39
2023-02-24T19:03:18.141Z,15.42
2023-02-24T19:06:22.186Z,15.37
2023-02-24T19:09:24.499Z,15.46
2023-02-24T19:12:26.917Z,15.48
2023-02-24T19:15:30.126Z,15.41
2023-02-24T19:18:32.510Z,15.43
2023-02-24T19:21:34.653Z,15.55
2023-02-24T19:24:36.843Z,15.49
2023-02-24T19:27:39.725Z,15.45
2023-02-24T19:30:41.885Z,15.50
2023-02-24T19:33:44.584Z,15.51
2023-02-24T19:36:46.675Z,15.51
2023-02-24T19:39:48.813Z,15.31
2023-02-24T19:42:53.316Z,15.24
2023-02-24T19:45:55.544Z,15.30
2023-02-24T19:48:57.635Z,15.38
2023-02-24T19:52:00.096Z,15.27
2023-02-24T19:55:02.486Z,15.38
2023-02-24T19:58:05.124Z,15.43
2023-02-24T20:01:16.676Z,15.39
2023-02-24T20:04:19.101Z,15.31
2023-02-24T20:07:22.772Z,15.40
2023-02-24T20:10:24.794Z,15.41
2023-02-24T20:13:26.920Z,15.46
2023-02-24T20:16:32.688Z,15.44
2023-02-24T20:19:35.203Z,15.39
2023-02-24T20:22:37.294Z,15.32
2023-02-24T20:25:39.558Z,15.24
2023-02-24T20:28:41.836Z,15.23
2023-02-24T20:31:46.371Z,15.26
2023-02-24T20:34:48.561Z,15.21
2023-02-24T20:37:50.641Z,15.13
2023-02-24T20:41:00.648Z,15.19
2023-02-24T20:44:02.698Z,15.18
2023-02-24T20:47:06.190Z,15.20
2023-02-24T20:50:08.550Z,15.21
2023-02-24T20:53:10.672Z,15.25
2023-02-24T20:56:20.516Z,15.35
2023-02-24T20:59:23.148Z,15.27
2023-02-24T21:02:26.190Z,15.30
2023-02-24T21:05:28.204Z,15.27
2023-02-24T21:08:31.147Z,15.24
2023-02-24T21:11:34.608Z,15.16
2023-02-24T21:14:36.840Z,15.06
2023-02-24T21:17:39.820Z,15.12
2023-02-24T21:20:41.828Z,15.16
2023-02-24T21:23:44.265Z,15.18
2023-02-24T21:26:47.548Z,15.21
2023-02-24T21:29:49.522Z,15.19
2023-02-24T21:32:51.642Z,15.13
2023-02-24T21:36:03.393Z,15.12
2023-02-24T21:39:08.662Z,15.24
2023-02-24T21:42:12.296Z,15.21
2023-02-24T21:45:19.366Z,15.16
2023-02-24T21:48:22.192Z,15.30
2023-02-24T21:51:25.381Z,15.21
2023-02-24T21:54:30.104Z,15.04
2023-02-24T21:57:32.209Z,15.11
2023-02-24T22:00:34.294Z,14.99
2023-02-24T22:03:36.360Z,14.98
2023-02-24T22:06:39.810Z,15.04
2023-02-24T22:09:41.963Z,15.13
2023-02-24T22:12:44.656Z,15.12
2023-02-24T22:15:46.644Z,15.18
2023-02-24T22:18:49.826Z,15.10
2023-02-24T22:21:51.794Z,15.11
2023-02-24T22:24:55.038Z,15.20
2023-02-24T22:27:57.330Z,15.30
2023-02-24T22:30:59.826Z,15.30
2023-02-24T22:34:04.523Z,15.25
2023-02-24T22:37:07.295Z,15.18
2023-02-24T22:40:10.422Z,15.21
2023-02-24T22:43:12.507Z,15.19
2023-02-24T22:46:21.877Z,15.09
2023-02-24T22:49:24.123Z,14.90
2023-02-24T22:52:26.898Z,14.91
2023-02-24T22:55:29.537Z,14.93
2023-02-24T22:58:32.697Z,14.94
2023-02-24T23:01:37.195Z,14.77
2023-02-24T23:04:39.205Z,14.79
2023-02-24T23:07:41.362Z,14.69
2023-02-24T23:10:43.552Z,14.66
2023-02-24T23:13:47.969Z,14.68
2023-02-24T23:16:55.648Z,14.55
2023-02-24T23:19:58.841Z,14.56
2023-02-24T23:23:01.956Z,14.68
2023-02-24T23:26:05.215Z,14.55
2023-02-24T23:29:08.649Z,14.56
2023-02-24T23:32:11.839Z,14.37
2023-02-24T23:35:15.386Z,14.33
2023-02-24T23:38:17.837Z,14.45
2023-02-24T23:41:19.852Z,14.46
2023-02-24T23:44:22.318Z,14.44
2023-02-24T23:47:24.535Z,14.43
2023-02-24T23:50:27.000Z,14.43
2023-02-24T23:53:28.955Z,14.36
2023-02-24T23:56:31.878Z,14.51
2023-02-24T23:59:33.870Z,14.51
